Time;durP1;ratioP1;P1;durP2;ratioP2;P2;SDS_P1;SDS_P2;PMS_P1;PMS_P2;Temp;Humidity;BMP_temperature;BMP_pressure;BME280_temperature;BME280_humidity;BME280_pressure;Samples;Min_cycle;Max_cycle;Signal;HPM_P1;HPM_P2
2021/12/30 05:01:53;;;;;;;42.55;15.88;;;7.40;99.90;;;;;;5248295;23;20360;-69
2021/12/30 05:04:19;;;;;;;38.63;16.10;;;7.30;99.90;;;;;;4926040;29;20202;-67
2021/12/30 05:06:46;;;;;;;48.22;17.52;;;7.20;99.90;;;;;;4933985;29;20232;-70
2021/12/30 05:09:13;;;;;;;47.80;17.77;;;7.20;99.90;;;;;;4929021;29;20263;-68
2021/12/30 05:11:41;;;;;;;50.20;17.40;;;7.20;99.90;;;;;;4918119;29;20230;-69
2021/12/30 05:14:08;;;;;;;46.42;17.38;;;7.20;99.90;;;;;;4903777;29;20527;-69
2021/12/30 05:16:35;;;;;;;48.25;16.23;;;7.20;99.90;;;;;;4913250;29;20283;-67
2021/12/30 05:19:03;;;;;;;46.40;18.10;;;7.20;99.90;;;;;;4920297;23;20202;-68
2021/12/30 05:21:30;;;;;;;46.15;15.55;;;7.30;99.90;;;;;;4931653;29;20658;-68
2021/12/30 05:23:57;;;;;;;59.38;16.85;;;7.40;99.90;;;;;;4923369;29;20353;-69
2021/12/30 05:26:27;;;;;;;39.45;15.15;;;7.40;99.90;;;;;;4930425;29;20297;-68
2021/12/30 05:28:54;;;;;;;46.75;16.67;;;7.40;99.90;;;;;;4926199;29;20222;-68
2021/12/30 05:31:21;;;;;;;39.47;15.60;;;7.50;99.90;;;;;;4914297;29;20270;-68
2021/12/30 05:33:47;;;;;;;43.08;16.23;;;7.50;99.90;;;;;;4917914;29;20211;-69
2021/12/30 05:36:15;;;;;;;44.53;15.80;;;7.60;99.90;;;;;;4907237;29;20215;-68
2021/12/30 05:38:42;;;;;;;39.67;14.18;;;7.60;99.90;;;;;;4912599;29;20266;-68
2021/12/30 05:41:09;;;;;;;44.78;16.20;;;7.70;99.90;;;;;;4909634;29;20210;-68
2021/12/30 05:43:36;;;;;;;49.00;16.15;;;7.70;99.90;;;;;;4915594;29;20206;-68
2021/12/30 05:46:02;;;;;;;41.22;15.90;;;7.80;99.90;;;;;;4909176;29;20203;-69
2021/12/30 05:48:29;;;;;;;38.95;14.00;;;7.80;99.90;;;;;;4915510;29;20238;-69
2021/12/30 05:50:59;;;;;;;40.10;14.30;;;7.90;99.90;;;;;;4909186;29;20640;-69
2021/12/30 05:53:27;;;;;;;39.95;15.40;;;7.90;99.90;;;;;;4908441;29;20297;-67
2021/12/30 05:55:54;;;;;;;39.45;13.85;;;8.00;99.90;;;;;;4902421;29;20299;-68
2021/12/30 05:58:21;;;;;;;45.53;14.30;;;8.00;99.90;;;;;;4911033;29;20683;-68
2021/12/30 06:00:49;;;;;;;34.45;14.98;;;8.00;99.90;;;;;;4911205;29;20600;-69
2021/12/30 06:03:18;;;;;;;42.00;16.42;;;8.00;99.90;;;;;;4914221;29;20211;-68
2021/12/30 06:05:45;;;;;;;58.00;15.10;;;8.00;99.90;;;;;;4907636;29;20317;-68
2021/12/30 06:08:12;;;;;;;44.72;14.32;;;8.00;99.90;;;;;;4909436;29;20280;-69
2021/12/30 06:10:41;;;;;;;36.80;13.45;;;8.10;99.90;;;;;;4909223;29;20223;-68
2021/12/30 06:13:08;;;;;;;39.83;13.57;;;8.10;99.90;;;;;;4906377;29;20651;-67
2021/12/30 06:15:35;;;;;;;42.90;13.55;;;8.10;99.90;;;;;;4908948;29;20207;-68
2021/12/30 06:18:02;;;;;;;41.72;14.43;;;8.10;99.90;;;;;;4913155;29;20282;-68
2021/12/30 06:20:30;;;;;;;40.55;14.73;;;8.10;99.90;;;;;;4909783;29;20305;-67
2021/12/30 06:22:57;;;;;;;40.80;14.38;;;8.10;99.90;;;;;;4911613;29;20301;-67
2021/12/30 06:25:24;;;;;;;49.55;13.85;;;8.10;99.90;;;;;;4898909;29;20267;-68
2021/12/30 06:27:52;;;;;;;44.10;14.43;;;8.10;99.90;;;;;;4908436;29;20563;-68
2021/12/30 06:30:19;;;;;;;59.63;15.75;;;8.20;99.90;;;;;;4908769;29;20293;-68
2021/12/30 06:32:46;;;;;;;42.53;14.02;;;8.20;99.90;;;;;;4910637;29;20270;-68
2021/12/30 06:35:13;;;;;;;43.45;14.45;;;8.20;99.90;;;;;;4909393;29;20234;-68
2021/12/30 06:37:40;;;;;;;38.13;13.65;;;8.20;99.90;;;;;;4909359;29;20210;-67
2021/12/30 06:40:10;;;;;;;45.03;14.70;;;8.30;99.90;;;;;;4908303;29;20226;-69
2021/12/30 06:42:37;;;;;;;54.22;13.63;;;8.30;99.90;;;;;;4905153;29;20704;-68
2021/12/30 06:45:05;;;;;;;40.58;13.77;;;8.30;99.90;;;;;;4911874;29;20211;-68
2021/12/30 06:47:32;;;;;;;38.53;15.27;;;8.30;99.90;;;;;;4907464;29;20262;-68
2021/12/30 06:50:01;;;;;;;31.02;15.25;;;8.30;99.90;;;;;;4907548;29;20317;-68
2021/12/30 06:52:28;;;;;;;44.47;16.50;;;8.30;99.90;;;;;;4896644;29;20219;-68
2021/12/30 06:54:55;;;;;;;47.58;16.52;;;8.20;99.90;;;;;;4905369;29;20266;-68
2021/12/30 06:57:22;;;;;;;41.72;16.50;;;8.20;99.90;;;;;;4896672;29;20642;-68
2021/12/30 06:59:49;;;;;;;48.25;15.50;;;8.20;99.90;;;;;;4903227;29;20223;-69
2021/12/30 07:02:17;;;;;;;44.38;16.48;;;8.30;99.90;;;;;;4897874;29;20204;-68
2021/12/30 07:04:44;;;;;;;51.63;15.52;;;8.30;99.90;;;;;;4904459;29;20255;-68
2021/12/30 07:07:11;;;;;;;47.40;16.50;;;8.40;99.90;;;;;;4898716;29;20207;-68
2021/12/30 07:09:37;;;;;;;48.13;14.48;;;8.50;99.90;;;;;;4907659;29;20237;-68
2021/12/30 07:12:06;;;;;;;53.50;15.90;;;8.50;99.90;;;;;;4899179;29;20532;-68
2021/12/30 07:14:32;;;;;;;50.80;16.75;;;8.50;99.90;;;;;;4905435;29;20305;-68
2021/12/30 07:16:59;;;;;;;49.40;16.70;;;8.50;99.90;;;;;;4902938;29;20262;-68
2021/12/30 07:19:27;;;;;;;55.30;14.68;;;8.50;99.90;;;;;;4906769;29;20701;-68
2021/12/30 07:21:54;;;;;;;45.67;17.08;;;8.40;99.90;;;;;;4900857;29;20739;-68
2021/12/30 07:24:21;;;;;;;50.63;15.27;;;8.50;99.90;;;;;;4905985;29;20589;-69
2021/12/30 07:26:48;;;;;;;38.70;15.15;;;8.50;99.90;;;;;;4904645;29;20219;-67
2021/12/30 07:29:15;;;;;;;45.58;16.00;;;8.50;99.90;;;;;;4906041;29;20238;-68
2021/12/30 07:31:42;;;;;;;53.90;16.45;;;8.40;99.90;;;;;;4911392;29;20554;-69
2021/12/30 07:34:08;;;;;;;47.80;17.42;;;8.50;99.90;;;;;;4906701;29;20255;-68
2021/12/30 07:36:36;;;;;;;37.22;15.55;;;8.50;99.90;;;;;;4900719;29;20270;-67
2021/12/30 07:39:04;;;;;;;35.88;15.75;;;8.40;99.90;;;;;;4913646;29;20230;-68
2021/12/30 07:41:31;;;;;;;47.67;15.15;;;8.40;99.90;;;;;;4910750;29;20653;-68
2021/12/30 07:43:57;;;;;;;46.33;16.88;;;8.40;99.90;;;;;;4906918;29;20204;-68
2021/12/30 07:46:24;;;;;;;45.67;15.80;;;8.40;99.90;;;;;;4911071;29;20211;-68
2021/12/30 07:48:51;;;;;;;38.92;15.27;;;8.40;99.90;;;;;;4898920;29;20261;-68
2021/12/30 07:51:18;;;;;;;38.78;16.20;;;8.40;99.90;;;;;;4913058;29;20239;-68
2021/12/30 07:53:46;;;;;;;49.75;17.52;;;8.40;99.90;;;;;;4913068;29;20262;-68
2021/12/30 07:56:13;;;;;;;44.50;16.13;;;8.40;99.90;;;;;;4905071;29;20207;-68
2021/12/30 07:58:40;;;;;;;47.30;15.85;;;8.40;99.90;;;;;;4906535;29;20206;-68
2021/12/30 08:01:07;;;;;;;43.17;15.73;;;8.40;99.90;;;;;;4904754;29;20223;-68
2021/12/30 08:03:34;;;;;;;51.00;15.43;;;8.40;99.90;;;;;;4909331;29;20228;-68
2021/12/30 08:06:00;;;;;;;37.63;14.27;;;8.40;99.90;;;;;;4910731;29;20294;-69
2021/12/30 08:08:27;;;;;;;36.85;15.30;;;8.40;99.90;;;;;;4916966;29;20270;-67
2021/12/30 08:10:55;;;;;;;36.15;14.95;;;8.50;99.90;;;;;;4915627;29;20227;-68
2021/12/30 08:13:23;;;;;;;50.38;15.30;;;8.50;99.90;;;;;;4905667;29;20683;-68
2021/12/30 08:15:50;;;;;;;40.15;15.43;;;8.50;99.90;;;;;;4915852;29;20241;-68
2021/12/30 08:18:17;;;;;;;66.93;19.00;;;8.50;99.90;;;;;;4916397;29;20672;-68
2021/12/30 08:20:44;;;;;;;45.22;16.02;;;8.50;99.90;;;;;;4915959;29;20230;-68
2021/12/30 08:23:10;;;;;;;57.58;24.42;;;8.50;99.90;;;;;;4913680;29;20265;-68
2021/12/30 08:25:37;;;;;;;112.95;46.28;;;8.60;99.90;;;;;;4909633;29;20206;-67
2021/12/30 08:28:05;;;;;;;86.40;38.05;;;8.60;99.90;;;;;;4914103;29;20603;-68
2021/12/30 08:30:32;;;;;;;39.00;17.58;;;8.60;99.90;;;;;;4915790;29;20750;-68
2021/12/30 08:32:59;;;;;;;37.85;14.95;;;8.60;99.90;;;;;;4913786;29;20202;-68
2021/12/30 08:35:26;;;;;;;46.58;16.88;;;8.60;99.90;;;;;;4909777;29;20261;-68
2021/12/30 08:37:54;;;;;;;37.75;15.18;;;8.70;99.90;;;;;;4912955;29;20691;-68
2021/12/30 08:40:21;;;;;;;48.78;15.90;;;8.70;99.90;;;;;;4910163;29;20227;-69
2021/12/30 08:42:47;;;;;;;43.05;16.77;;;8.70;99.90;;;;;;4913989;29;20631;-69
2021/12/30 08:45:16;;;;;;;39.10;16.70;;;8.70;99.90;;;;;;4913184;29;20100;-68
2021/12/30 08:47:44;;;;;;;47.65;20.27;;;8.70;99.90;;;;;;4914611;29;20575;-68
2021/12/30 08:50:13;;;;;;;49.35;19.52;;;8.80;99.90;;;;;;4915323;29;20763;-68
2021/12/30 08:52:41;;;;;;;56.42;21.35;;;8.80;99.90;;;;;;4914213;29;20230;-68
2021/12/30 08:55:09;;;;;;;49.25;23.70;;;8.80;99.90;;;;;;4911389;29;20672;-68
2021/12/30 08:57:40;;;;;;;51.80;23.02;;;8.80;99.90;;;;;;4898948;29;20259;-68
2021/12/30 09:00:10;;;;;;;48.25;21.30;;;8.80;99.90;;;;;;4898086;29;20314;-69
2021/12/30 09:02:38;;;;;;;48.75;20.63;;;8.80;99.90;;;;;;4914772;29;20238;-69
2021/12/30 09:05:06;;;;;;;49.78;20.08;;;8.80;99.90;;;;;;4914164;29;21970;-69
2021/12/30 09:07:32;;;;;;;45.20;16.23;;;8.80;99.90;;;;;;4902639;29;20271;-69
2021/12/30 09:09:59;;;;;;;50.70;17.55;;;8.80;99.90;;;;;;4914005;29;20223;-69
2021/12/30 09:12:26;;;;;;;35.50;15.73;;;8.90;99.90;;;;;;4897225;29;20219;-69
2021/12/30 09:14:53;;;;;;;40.08;16.60;;;8.80;99.90;;;;;;4897652;29;20650;-68
2021/12/30 09:17:19;;;;;;;30.83;15.23;;;8.80;99.90;;;;;;4900063;29;20211;-68
2021/12/30 09:19:47;;;;;;;43.83;17.15;;;8.80;99.90;;;;;;4903533;29;20234;-68
2021/12/30 09:22:14;;;;;;;51.75;19.13;;;8.90;99.90;;;;;;4916022;29;20278;-68
2021/12/30 09:24:42;;;;;;;50.17;16.83;;;8.90;99.90;;;;;;4915332;29;20214;-68
2021/12/30 09:27:09;;;;;;;37.05;15.00;;;8.90;99.90;;;;;;4900827;29;20259;-68
2021/12/30 09:29:36;;;;;;;41.58;15.38;;;8.90;99.90;;;;;;4905599;29;20230;-69
2021/12/30 09:32:03;;;;;;;34.38;13.38;;;8.90;99.90;;;;;;4915730;29;20241;-69
2021/12/30 09:34:30;;;;;;;38.17;14.80;;;8.90;99.90;;;;;;4898471;29;20267;-68
2021/12/30 09:36:58;;;;;;;45.92;16.92;;;8.90;99.90;;;;;;4902110;29;20204;-69
2021/12/30 09:39:24;;;;;;;39.97;15.98;;;8.90;99.90;;;;;;4914266;29;20226;-69
2021/12/30 09:41:51;;;;;;;55.20;15.13;;;9.00;99.90;;;;;;4908535;29;20253;-68
2021/12/30 09:44:19;;;;;;;40.50;14.40;;;9.00;99.90;;;;;;4910796;29;20614;-68
2021/12/30 09:46:47;;;;;;;31.88;12.40;;;9.00;99.90;;;;;;4914985;29;20277;-69
2021/12/30 09:49:17;;;;;;;38.20;15.30;;;8.90;99.90;;;;;;4909071;29;20287;-68
2021/12/30 09:51:44;;;;;;;44.40;14.75;;;9.00;99.90;;;;;;4896645;29;20214;-69
2021/12/30 09:54:13;;;;;;;47.88;18.02;;;9.00;99.90;;;;;;4906738;29;20660;-68
2021/12/30 09:56:40;;;;;;;56.33;16.38;;;9.10;99.90;;;;;;4904827;29;20212;-69
2021/12/30 09:59:08;;;;;;;43.38;14.35;;;9.10;99.90;;;;;;4899169;29;20273;-69
2021/12/30 10:01:36;;;;;;;40.40;15.57;;;9.10;99.90;;;;;;4900681;29;20274;-68
2021/12/30 10:04:05;;;;;;;46.90;18.55;;;9.20;99.90;;;;;;4906986;29;20207;-69
2021/12/30 10:06:32;;;;;;;40.65;16.10;;;9.20;99.90;;;;;;4908075;29;20294;-69
2021/12/30 10:09:02;;;;;;;43.58;18.92;;;9.30;99.90;;;;;;4907981;29;20222;-69
2021/12/30 10:11:30;;;;;;;55.45;18.38;;;9.30;99.90;;;;;;4914637;29;20467;-69
2021/12/30 10:13:59;;;;;;;40.13;15.52;;;9.30;99.90;;;;;;4914131;29;20210;-68
2021/12/30 10:16:27;;;;;;;38.75;17.73;;;9.30;99.90;;;;;;4914824;29;20659;-69
2021/12/30 10:18:57;;;;;;;39.47;14.65;;;9.40;99.90;;;;;;4904681;29;20286;-68
2021/12/30 10:21:26;;;;;;;37.03;14.98;;;9.40;99.90;;;;;;4895751;29;20231;-68
2021/12/30 10:23:55;;;;;;;34.58;13.70;;;9.50;99.90;;;;;;4898998;29;20439;-68
2021/12/30 10:26:23;;;;;;;42.35;15.88;;;9.50;99.90;;;;;;4898902;29;20211;-67
2021/12/30 10:28:53;;;;;;;38.70;16.23;;;9.50;99.90;;;;;;4909228;29;20262;-69
2021/12/30 10:31:27;;;;;;;37.35;15.45;;;9.50;99.90;;;;;;4895683;29;20207;-67
2021/12/30 10:33:57;;;;;;;31.02;15.15;;;9.50;99.90;;;;;;4896754;29;20523;-68
2021/12/30 10:36:26;;;;;;;34.83;18.92;;;9.60;99.90;;;;;;4900141;29;20211;-69
2021/12/30 10:38:54;;;;;;;34.75;19.05;;;9.60;99.90;;;;;;4910571;29;20198;-67
2021/12/30 10:41:24;;;;;;;38.65;22.88;;;9.60;99.90;;;;;;4913144;29;20278;-69
2021/12/30 10:43:57;;;;;;;36.17;21.30;;;9.60;99.90;;;;;;4900637;29;20215;-69
2021/12/30 10:46:26;;;;;;;43.08;22.73;;;9.70;99.90;;;;;;4897089;29;20218;-69
2021/12/30 10:49:05;;;;;;;46.35;18.65;;;9.60;99.90;;;;;;4896941;29;20219;-67
2021/12/30 10:51:40;;;;;;;27.40;13.93;;;9.70;99.90;;;;;;4913742;29;20220;-68
2021/12/30 10:54:13;;;;;;;30.13;14.10;;;9.70;99.90;;;;;;4909002;29;20281;-67
2021/12/30 10:56:41;;;;;;;35.10;15.13;;;9.80;99.90;;;;;;4903233;29;20301;-69
2021/12/30 10:59:22;;;;;;;28.25;12.77;;;9.80;99.90;;;;;;4901453;29;20227;-69
2021/12/30 11:01:51;;;;;;;22.98;11.52;;;9.80;99.90;;;;;;4897147;29;20222;-68
2021/12/30 11:04:19;;;;;;;22.08;12.60;;;9.90;99.90;;;;;;4911506;29;20210;-68
2021/12/30 11:06:47;;;;;;;22.98;10.65;;;10.00;99.90;;;;;;4910269;29;20612;-68
2021/12/30 11:09:19;;;;;;;19.15;10.77;;;10.00;99.90;;;;;;4909575;29;20318;-67
2021/12/30 11:11:52;;;;;;;21.40;10.20;;;10.10;99.90;;;;;;4905777;29;20229;-69
2021/12/30 11:14:23;;;;;;;16.92;10.35;;;10.10;99.90;;;;;;4910037;29;20211;-67
2021/12/30 11:17:04;;;;;;;32.72;14.88;;;10.10;99.90;;;;;;4898594;29;20218;-67
2021/12/30 11:19:34;;;;;;;32.85;17.23;;;10.10;99.90;;;;;;4906714;29;20258;-69
2021/12/30 11:22:02;;;;;;;16.33;10.30;;;10.20;99.90;;;;;;4896742;29;20290;-67
2021/12/30 11:24:31;;;;;;;14.85;9.40;;;10.20;99.90;;;;;;4907522;29;20608;-67
2021/12/30 11:26:59;;;;;;;18.52;10.77;;;10.30;99.90;;;;;;4908563;29;20584;-67
2021/12/30 11:29:27;;;;;;;15.35;8.90;;;10.30;99.90;;;;;;4912700;29;20650;-69
2021/12/30 11:31:54;;;;;;;18.02;11.13;;;10.40;99.90;;;;;;4912568;29;20203;-69
2021/12/30 11:34:24;;;;;;;25.73;12.68;;;10.50;99.90;;;;;;4913855;29;20218;-70
2021/12/30 11:36:51;;;;;;;19.75;9.82;;;10.60;99.90;;;;;;4909603;29;20243;-70
2021/12/30 11:39:21;;;;;;;25.85;12.90;;;10.60;99.90;;;;;;4913945;29;20289;-69
2021/12/30 11:41:54;;;;;;;10.68;6.53;;;10.70;99.90;;;;;;4915306;29;20286;-70
2021/12/30 11:44:44;;;;;;;11.05;6.72;;;10.70;99.90;;;;;;4917273;29;20214;-67
2021/12/30 11:47:42;;;;;;;47.63;28.08;;;10.80;99.90;;;;;;4907843;29;20396;-68
2021/12/30 11:50:12;;;;;;;24.17;14.20;;;10.80;99.90;;;;;;4898403;29;20592;-67
2021/12/30 11:52:51;;;;;;;16.50;8.52;;;10.90;99.90;;;;;;4913054;29;20839;-67
2021/12/30 11:55:40;;;;;;;12.70;9.05;;;10.90;99.90;;;;;;4917848;29;20210;-68
2021/12/30 11:58:45;;;;;;;22.27;15.52;;;10.90;99.90;;;;;;4917176;29;20230;-67
2021/12/30 12:01:35;;;;;;;7.65;6.05;;;10.90;99.90;;;;;;4910525;29;20226;-67
2021/12/30 12:04:06;;;;;;;12.88;8.70;;;10.90;99.90;;;;;;4913548;29;20273;-68
2021/12/30 12:06:36;;;;;;;6.75;6.07;;;11.00;99.90;;;;;;4907998;29;20576;-68
2021/12/30 12:09:07;;;;;;;5.30;4.35;;;11.00;99.90;;;;;;4919904;29;20274;-68
2021/12/30 12:11:45;;;;;;;6.88;6.15;;;11.00;99.90;;;;;;4921854;29;20245;-67
2021/12/30 12:14:14;;;;;;;6.73;5.50;;;11.10;99.90;;;;;;4922266;29;20206;-67
2021/12/30 12:16:49;;;;;;;12.37;6.37;;;11.10;99.90;;;;;;4920938;29;20997;-68
2021/12/30 12:19:19;;;;;;;7.47;5.78;;;11.20;99.90;;;;;;4911684;29;20498;-70
2021/12/30 12:21:48;;;;;;;3.55;3.33;;;11.20;99.90;;;;;;4919662;29;20230;-67
2021/12/30 12:24:33;;;;;;;4.80;3.13;;;11.20;99.90;;;;;;4929420;29;20341;-68
2021/12/30 12:27:03;;;;;;;9.75;7.25;;;11.20;99.90;;;;;;4929691;29;20623;-69
2021/12/30 12:29:34;;;;;;;5.25;4.70;;;11.30;99.90;;;;;;4923338;29;20234;-69
2021/12/30 12:32:06;;;;;;;2.67;2.58;;;11.30;99.90;;;;;;4917857;29;20701;-68
2021/12/30 12:34:42;;;;;;;2.78;2.58;;;11.30;99.90;;;;;;4917495;29;20214;-69
2021/12/30 12:37:48;;;;;;;1.65;1.55;;;11.30;99.90;;;;;;4907859;29;20239;-68
2021/12/30 12:40:34;;;;;;;1.33;1.33;;;11.40;99.90;;;;;;4913424;29;20803;-69
2021/12/30 12:43:07;;;;;;;3.37;3.27;;;11.40;99.90;;;;;;4912105;29;20478;-67
2021/12/30 12:45:36;;;;;;;2.97;2.50;;;11.40;99.90;;;;;;4915578;29;20470;-69
2021/12/30 12:48:24;;;;;;;2.00;1.90;;;11.50;99.90;;;;;;4918433;29;20919;-68
2021/12/30 12:50:53;;;;;;;2.50;2.50;;;11.50;99.90;;;;;;4902484;29;20227;-68
2021/12/30 12:53:22;;;;;;;2.47;2.45;;;11.50;99.90;;;;;;4916371;29;20710;-68
2021/12/30 12:55:49;;;;;;;3.80;3.50;;;11.60;99.90;;;;;;4914925;29;20214;-68
2021/12/30 12:58:19;;;;;;;2.03;2.03;;;11.60;99.90;;;;;;4916194;29;20215;-68
2021/12/30 13:00:46;;;;;;;1.50;1.50;;;11.60;99.90;;;;;;4914613;29;20345;-68
2021/12/30 13:03:15;;;;;;;1.30;1.30;;;11.60;99.90;;;;;;4916030;29;20462;-68
2021/12/30 13:05:55;;;;;;;0.90;0.90;;;11.60;99.90;;;;;;4915360;29;20648;-67
2021/12/30 13:08:23;;;;;;;1.47;1.37;;;11.60;99.90;;;;;;4916735;29;20926;-68
2021/12/30 13:10:51;;;;;;;1.43;1.37;;;11.70;99.90;;;;;;4914924;29;20514;-69
2021/12/30 13:13:28;;;;;;;4.43;4.03;;;11.70;99.90;;;;;;4916548;29;20509;-69
2021/12/30 13:15:55;;;;;;;2.08;2.05;;;11.70;99.90;;;;;;4915344;29;20210;-69
2021/12/30 13:18:22;;;;;;;2.10;1.97;;;11.70;99.90;;;;;;4918636;29;20234;-68
2021/12/30 13:20:49;;;;;;;3.40;1.97;;;11.70;99.90;;;;;;4916806;29;20494;-68
2021/12/30 13:23:28;;;;;;;4.00;1.87;;;11.70;99.90;;;;;;4897446;29;20495;-69
2021/12/30 13:26:03;;;;;;;2.60;2.40;;;11.80;99.90;;;;;;4904324;29;20466;-69
2021/12/30 13:28:30;;;;;;;1.30;1.30;;;11.80;99.90;;;;;;4906341;29;20471;-68
2021/12/30 13:31:09;;;;;;;2.60;2.40;;;11.80;99.90;;;;;;4915178;29;20478;-68
2021/12/30 13:33:35;;;;;;;1.77;1.77;;;11.80;99.90;;;;;;4914907;29;20546;-68
2021/12/30 13:36:20;;;;;;;2.00;1.90;;;11.90;99.90;;;;;;4909490;29;20504;-68
2021/12/30 13:38:48;;;;;;;2.00;1.90;;;11.90;99.90;;;;;;4906590;29;20588;-68
2021/12/30 13:41:17;;;;;;;2.00;1.90;;;12.00;99.90;;;;;;4915380;29;20479;-69
2021/12/30 13:43:45;;;;;;;1.00;1.00;;;11.90;99.90;;;;;;4915933;29;20210;-69
2021/12/30 13:46:12;;;;;;;3.00;2.90;;;11.90;99.90;;;;;;4915440;29;20471;-69
2021/12/30 13:48:41;;;;;;;1.40;1.40;;;11.90;99.90;;;;;;4911128;29;20478;-69
2021/12/30 13:51:11;;;;;;;2.83;0.97;;;11.90;99.90;;;;;;4915309;29;20514;-69
2021/12/30 13:53:41;;;;;;;0.90;0.90;;;11.90;99.90;;;;;;4915151;29;20600;-69
2021/12/30 13:56:11;;;;;;;0.90;0.90;;;11.90;99.90;;;;;;4914050;29;20978;-69
2021/12/30 13:58:40;;;;;;;2.63;2.63;;;11.90;99.90;;;;;;4912572;29;20471;-68
2021/12/30 14:01:10;;;;;;;1.30;1.30;;;11.90;99.90;;;;;;4900218;29;20514;-68
2021/12/30 14:03:40;;;;;;;3.27;3.07;;;11.90;99.90;;;;;;4908358;29;20471;-69
2021/12/30 14:06:09;;;;;;;1.00;1.00;;;12.00;99.90;;;;;;4899507;29;20473;-69
2021/12/30 14:08:37;;;;;;;1.10;1.10;;;11.90;99.90;;;;;;4913391;29;20470;-69
2021/12/30 14:11:07;;;;;;;1.07;0.90;;;11.90;99.90;;;;;;4913341;29;20875;-69
2021/12/30 14:13:39;;;;;;;1.07;1.07;;;11.90;99.90;;;;;;4898788;29;20475;-69
2021/12/30 14:16:08;;;;;;;1.60;1.53;;;12.00;99.90;;;;;;4904992;29;20561;-69
2021/12/30 14:18:36;;;;;;;0.60;0.60;;;11.90;99.90;;;;;;4908674;29;20467;-69
2021/12/30 14:21:04;;;;;;;0.90;0.90;;;12.00;99.90;;;;;;4907995;29;20498;-69
2021/12/30 14:23:34;;;;;;;1.40;1.40;;;11.90;99.90;;;;;;4900544;29;20904;-69
2021/12/30 14:26:19;;;;;;;1.33;1.33;;;11.90;99.90;;;;;;4910484;29;20566;-68
2021/12/30 14:28:57;;;;;;;1.90;1.90;;;11.90;99.90;;;;;;4908770;29;20968;-68
2021/12/30 14:31:27;;;;;;;0.60;0.60;;;11.90;99.90;;;;;;4907126;29;20967;-69
2021/12/30 14:34:16;;;;;;;1.65;1.55;;;11.90;99.90;;;;;;4913451;29;21015;-68
2021/12/30 14:36:53;;;;;;;0.90;0.90;;;11.90;99.90;;;;;;4906932;29;20298;-67
2021/12/30 14:39:23;;;;;;;2.15;2.05;;;11.90;99.90;;;;;;4907500;29;21021;-67
2021/12/30 14:41:51;;;;;;;1.92;1.92;;;11.90;99.90;;;;;;4904345;29;20221;-68
2021/12/30 14:44:27;;;;;;;0.90;0.90;;;12.00;99.90;;;;;;4910301;29;20632;-67
2021/12/30 14:47:05;;;;;;;0.70;0.70;;;11.90;99.90;;;;;;4912544;29;20726;-68
2021/12/30 14:49:34;;;;;;;1.00;1.00;;;11.90;99.90;;;;;;4911166;29;20569;-67
2021/12/30 14:52:20;;;;;;;1.20;1.20;;;11.90;99.90;;;;;;4913986;29;20209;-68
2021/12/30 14:54:48;;;;;;;0.90;0.90;;;11.90;99.90;;;;;;4899511;29;20557;-68
2021/12/30 14:57:19;;;;;;;0.82;0.82;;;11.90;99.90;;;;;;4901153;29;20213;-68
2021/12/30 14:59:49;;;;;;;0.80;0.80;;;11.90;99.90;;;;;;4896568;29;20227;-68
2021/12/30 15:02:16;;;;;;;1.63;1.63;;;11.90;99.90;;;;;;4907849;29;20573;-68
2021/12/30 15:04:43;;;;;;;1.05;1.05;;;11.90;99.90;;;;;;4913471;29;20214;-68
2021/12/30 15:07:10;;;;;;;1.90;1.90;;;11.90;99.90;;;;;;4913307;29;20206;-68
2021/12/30 15:09:39;;;;;;;2.10;2.10;;;11.90;99.90;;;;;;4904581;29;20317;-68
2021/12/30 15:12:06;;;;;;;1.52;1.52;;;11.90;99.90;;;;;;4912742;29;20206;-69
2021/12/30 15:14:34;;;;;;;1.70;1.60;;;11.90;99.90;;;;;;4916915;29;20220;-69
2021/12/30 15:17:03;;;;;;;1.23;1.23;;;11.90;99.90;;;;;;4920059;29;20466;-68
2021/12/30 15:19:30;;;;;;;1.53;1.53;;;11.90;99.90;;;;;;4919637;29;20502;-68
2021/12/30 15:21:56;;;;;;;1.30;1.30;;;11.90;99.90;;;;;;4920119;29;20526;-68
2021/12/30 15:24:23;;;;;;;1.50;1.40;;;11.90;99.90;;;;;;4919879;29;20466;-68
2021/12/30 15:26:50;;;;;;;1.50;1.50;;;11.90;99.90;;;;;;4906305;29;20944;-68
2021/12/30 15:29:16;;;;;;;2.20;2.07;;;11.90;99.90;;;;;;4913715;29;21031;-68
2021/12/30 15:31:43;;;;;;;2.00;1.90;;;12.00;99.90;;;;;;4919699;29;20478;-68
2021/12/30 15:34:11;;;;;;;1.60;1.60;;;12.00;99.90;;;;;;4919860;29;20462;-68
2021/12/30 15:36:38;;;;;;;1.30;1.20;;;11.90;99.90;;;;;;4919840;29;20513;-69
2021/12/30 15:39:05;;;;;;;2.25;1.80;;;11.90;99.90;;;;;;4913034;29;20475;-67
2021/12/30 15:41:31;;;;;;;2.60;2.60;;;11.90;99.90;;;;;;4917733;29;20682;-68
2021/12/30 15:43:58;;;;;;;1.63;1.63;;;11.90;99.90;;;;;;4919009;29;20466;-67
2021/12/30 15:46:25;;;;;;;1.27;1.27;;;11.90;99.90;;;;;;4919887;29;20473;-67
2021/12/30 15:48:51;;;;;;;1.23;1.23;;;11.90;99.90;;;;;;4914216;29;20526;-68
2021/12/30 15:51:19;;;;;;;1.40;1.40;;;11.90;99.90;;;;;;4908459;29;20534;-68
2021/12/30 15:53:46;;;;;;;1.50;1.50;;;12.00;99.90;;;;;;4919616;29;20470;-68
2021/12/30 15:56:14;;;;;;;1.53;1.53;;;11.90;99.90;;;;;;4918524;29;20470;-67
2021/12/30 15:58:41;;;;;;;1.53;1.53;;;11.90;99.90;;;;;;4917101;29;20466;-68
2021/12/30 16:01:07;;;;;;;1.48;1.48;;;11.90;99.90;;;;;;4917449;29;20604;-67
2021/12/30 16:03:34;;;;;;;1.37;1.37;;;11.90;99.90;;;;;;4909071;29;20209;-67
2021/12/30 16:06:01;;;;;;;1.60;1.60;;;11.90;99.90;;;;;;4914130;29;20466;-69
2021/12/30 16:08:29;;;;;;;1.10;1.10;;;11.90;99.90;;;;;;4917421;29;20493;-67
2021/12/30 16:10:55;;;;;;;1.40;1.30;;;11.90;99.90;;;;;;4913499;29;20549;-67
2021/12/30 16:13:22;;;;;;;1.77;1.67;;;11.90;99.90;;;;;;4919921;29;20285;-67
2021/12/30 16:15:49;;;;;;;1.63;1.63;;;11.90;99.90;;;;;;4906561;29;20467;-67
2021/12/30 16:18:18;;;;;;;2.47;1.73;;;11.90;99.90;;;;;;4919297;29;20474;-67
2021/12/30 16:20:47;;;;;;;2.03;1.93;;;11.90;99.90;;;;;;4918539;29;20490;-67
2021/12/30 16:23:14;;;;;;;2.77;2.67;;;11.90;99.90;;;;;;4919536;29;20526;-68
2021/12/30 16:25:42;;;;;;;1.93;1.93;;;11.90;99.90;;;;;;4916985;29;20477;-68
2021/12/30 16:28:09;;;;;;;7.30;5.40;;;11.90;99.90;;;;;;4916337;29;20550;-69
2021/12/30 16:30:36;;;;;;;2.80;2.60;;;12.00;99.90;;;;;;4912560;29;20558;-68
2021/12/30 16:33:03;;;;;;;2.63;2.37;;;11.90;99.90;;;;;;4900287;29;20266;-69
2021/12/30 16:35:29;;;;;;;3.33;3.00;;;11.90;99.90;;;;;;4916102;29;20565;-68
2021/12/30 16:37:56;;;;;;;3.13;3.03;;;11.90;99.90;;;;;;4913123;29;20466;-68
2021/12/30 16:40:24;;;;;;;2.17;2.13;;;11.90;99.90;;;;;;4916361;29;20486;-68
2021/12/30 16:42:53;;;;;;;4.00;3.60;;;11.90;99.90;;;;;;4915834;29;20497;-68
2021/12/30 16:45:20;;;;;;;3.50;3.30;;;11.90;99.90;;;;;;4915476;29;20473;-68
2021/12/30 16:47:48;;;;;;;2.67;2.57;;;11.90;99.90;;;;;;4910847;29;20566;-68
2021/12/30 16:50:16;;;;;;;2.70;2.60;;;11.90;99.90;;;;;;4909867;29;20593;-68
2021/12/30 16:52:42;;;;;;;2.50;2.30;;;11.90;99.90;;;;;;4906386;29;20551;-68
2021/12/30 16:55:11;;;;;;;2.40;2.30;;;11.90;99.90;;;;;;4911622;29;20529;-68
2021/12/30 16:57:39;;;;;;;2.20;2.10;;;11.90;99.90;;;;;;4907847;29;20480;-68
2021/12/30 17:00:10;;;;;;;2.93;2.83;;;11.90;99.90;;;;;;4905842;29;20805;-68
2021/12/30 17:02:37;;;;;;;3.17;3.07;;;11.90;99.90;;;;;;4914061;29;20868;-68
2021/12/30 17:05:05;;;;;;;3.08;2.97;;;11.90;99.90;;;;;;4914146;29;20573;-68
2021/12/30 17:07:31;;;;;;;3.43;3.23;;;11.90;99.90;;;;;;4913212;29;20293;-69
2021/12/30 17:09:58;;;;;;;4.60;2.80;;;11.90;99.90;;;;;;4915005;29;20542;-68
2021/12/30 17:12:25;;;;;;;2.83;2.73;;;11.90;99.90;;;;;;4909723;29;20590;-68
2021/12/30 17:14:53;;;;;;;3.27;3.17;;;11.90;99.90;;;;;;4908415;29;20486;-69
2021/12/30 17:17:21;;;;;;;2.67;2.57;;;11.90;99.90;;;;;;4904632;29;20972;-68
2021/12/30 17:19:47;;;;;;;3.30;3.00;;;11.90;99.90;;;;;;4906252;29;21113;-68
2021/12/30 17:22:14;;;;;;;2.77;2.67;;;11.90;99.90;;;;;;4903659;29;20498;-69
2021/12/30 17:24:41;;;;;;;3.43;3.23;;;11.90;99.90;;;;;;4910285;29;20951;-69
2021/12/30 17:27:08;;;;;;;3.43;3.17;;;11.90;99.90;;;;;;4910626;29;20533;-68
2021/12/30 17:29:34;;;;;;;3.00;2.80;;;11.90;99.90;;;;;;4905299;29;20485;-69
2021/12/30 17:32:01;;;;;;;3.10;3.00;;;11.90;99.90;;;;;;4912358;29;20561;-69
2021/12/30 17:34:29;;;;;;;3.55;3.35;;;11.90;99.90;;;;;;4910798;29;20972;-69
2021/12/30 17:36:59;;;;;;;3.42;3.15;;;11.90;99.90;;;;;;4912482;29;20214;-68
2021/12/30 17:39:26;;;;;;;3.60;3.40;;;11.90;99.90;;;;;;4914442;29;20334;-68
2021/12/30 17:41:52;;;;;;;3.53;3.23;;;11.90;99.90;;;;;;4911388;29;20610;-68
2021/12/30 17:44:19;;;;;;;3.00;2.80;;;11.80;99.90;;;;;;4909757;29;20475;-66
2021/12/30 17:46:46;;;;;;;3.27;3.07;;;11.80;99.90;;;;;;4908800;29;20502;-67
2021/12/30 17:49:13;;;;;;;2.93;2.73;;;11.80;99.90;;;;;;4908215;29;20490;-69
2021/12/30 17:51:41;;;;;;;3.17;3.07;;;11.80;99.90;;;;;;4909863;29;20475;-67